Time;durP1;ratioP1;P1;durP2;ratioP2;P2;SDS_P1;SDS_P2;PMS_P1;PMS_P2;Temp;Humidity;BMP_temperature;BMP_pressure;BME280_temperature;BME280_humidity;BME280_pressure;Samples;Min_cycle;Max_cycle;Signal;HPM_P1;HPM_P2
2023/02/18 01:18:41;;;;;;;15.60;2.83;;;9.00;99.90;;;;;;5025874;28;20226;-67
2023/02/18 01:21:09;;;;;;;8.03;1.97;;;9.00;99.90;;;;;;5008880;28;20297;-67
2023/02/18 01:23:37;;;;;;;13.10;2.60;;;8.90;99.90;;;;;;5013358;28;20241;-66
2023/02/18 01:26:05;;;;;;;14.27;2.50;;;9.00;99.90;;;;;;5028817;28;20558;-66
2023/02/18 01:28:33;;;;;;;20.17;3.20;;;9.00;99.80;;;;;;5014382;28;20202;-66
2023/02/18 01:31:05;;;;;;;9.70;2.47;;;9.00;99.60;;;;;;5010199;28;20207;-66
2023/02/18 01:33:32;;;;;;;14.00;2.47;;;9.00;99.60;;;;;;5027108;28;20693;-66
2023/02/18 01:36:03;;;;;;;12.00;2.53;;;9.00;99.40;;;;;;5011337;28;20747;-67
2023/02/18 01:38:30;;;;;;;12.77;2.83;;;9.00;99.20;;;;;;5028688;28;20190;-66
2023/02/18 01:40:57;;;;;;;9.23;2.10;;;9.00;99.00;;;;;;5012740;28;20208;-67
2023/02/18 01:43:24;;;;;;;9.40;2.50;;;8.90;98.60;;;;;;5011634;28;20250;-66
2023/02/18 01:46:17;;;;;;;11.67;2.47;;;9.00;98.60;;;;;;5030015;28;20254;-67
2023/02/18 01:48:49;;;;;;;15.13;3.00;;;9.10;99.90;;;;;;5023233;28;20692;-66
2023/02/18 01:51:25;;;;;;;9.20;2.23;;;9.00;97.80;;;;;;5028440;28;20750;-67
2023/02/18 01:53:57;;;;;;;14.00;2.70;;;9.00;97.70;;;;;;5024437;28;20211;-66
2023/02/18 01:56:28;;;;;;;15.67;2.57;;;9.00;97.10;;;;;;5028463;28;20194;-66
2023/02/18 01:58:59;;;;;;;9.17;1.93;;;9.00;97.30;;;;;;5011263;28;20218;-66
2023/02/18 02:01:27;;;;;;;18.77;2.80;;;9.00;97.40;;;;;;5027712;28;20266;-67
2023/02/18 02:03:55;;;;;;;13.90;2.77;;;9.00;97.10;;;;;;5007726;28;20608;-67
2023/02/18 02:06:26;;;;;;;7.70;2.37;;;9.00;96.60;;;;;;5028954;28;20214;-68
2023/02/18 02:08:56;;;;;;;11.93;2.23;;;9.00;96.80;;;;;;5026415;28;20194;-68
2023/02/18 02:11:35;;;;;;;17.70;3.33;;;9.00;96.80;;;;;;5010994;28;20516;-67
2023/02/18 02:14:16;;;;;;;10.73;2.67;;;9.00;96.90;;;;;;5027369;28;20701;-67
2023/02/18 02:16:50;;;;;;;13.00;2.77;;;9.00;97.00;;;;;;5026591;28;20198;-67
2023/02/18 02:19:54;;;;;;;21.20;3.57;;;9.10;96.90;;;;;;5011489;28;20201;-67
2023/02/18 02:23:08;;;;;;;9.17;2.40;;;9.10;96.50;;;;;;5009364;28;20210;-68
2023/02/18 02:25:59;;;;;;;15.03;2.70;;;9.10;96.50;;;;;;4950424;28;20197;-67
2023/02/18 02:29:03;;;;;;;10.30;2.67;;;9.00;96.30;;;;;;4965679;28;21733;-67
2023/02/18 02:31:56;;;;;;;10.63;2.50;;;9.00;96.30;;;;;;4999701;28;20623;-66
2023/02/18 02:34:42;;;;;;;10.77;2.67;;;9.00;96.20;;;;;;5025634;28;20203;-66
2023/02/18 02:37:16;;;;;;;12.37;2.43;;;9.00;96.30;;;;;;5028965;28;20556;-67
2023/02/18 02:39:50;;;;;;;10.23;2.40;;;9.00;95.90;;;;;;5011173;28;20664;-66
2023/02/18 02:42:28;;;;;;;15.43;2.97;;;9.00;95.70;;;;;;5027421;28;20202;-66
2023/02/18 02:45:00;;;;;;;7.97;2.30;;;8.90;95.70;;;;;;5011421;28;20194;-67
2023/02/18 02:47:35;;;;;;;17.00;3.07;;;9.00;95.70;;;;;;5027305;28;20206;-67
2023/02/18 02:50:09;;;;;;;10.50;2.10;;;9.00;95.70;;;;;;5011936;28;20913;-67
2023/02/18 02:52:41;;;;;;;15.77;2.77;;;9.00;95.40;;;;;;5028596;28;20190;-66
2023/02/18 02:55:10;;;;;;;8.47;2.00;;;9.00;95.60;;;;;;5010175;28;20204;-66
2023/02/18 02:57:47;;;;;;;12.83;2.60;;;8.90;95.50;;;;;;5012039;28;20667;-66
2023/02/18 03:00:22;;;;;;;8.53;2.17;;;8.90;95.40;;;;;;5010381;28;20194;-66
2023/02/18 03:03:06;;;;;;;13.73;2.47;;;8.90;95.30;;;;;;5009183;28;20615;-66
2023/02/18 03:05:44;;;;;;;10.47;2.80;;;8.90;95.30;;;;;;5024781;28;20212;-67
2023/02/18 03:08:26;;;;;;;9.83;2.40;;;8.90;95.30;;;;;;5026424;28;20190;-67
2023/02/18 03:10:58;;;;;;;11.93;2.23;;;8.90;95.10;;;;;;5014077;28;20203;-66
2023/02/18 03:13:38;;;;;;;14.27;2.80;;;8.90;95.10;;;;;;5010418;28;20211;-66
2023/02/18 03:16:15;;;;;;;9.47;2.43;;;8.90;94.90;;;;;;5010273;28;20187;-66
2023/02/18 03:18:48;;;;;;;16.87;2.87;;;8.90;94.80;;;;;;5024169;28;20237;-67
2023/02/18 03:21:25;;;;;;;14.80;2.80;;;8.90;94.70;;;;;;5008655;28;20681;-66
2023/02/18 03:23:56;;;;;;;11.83;2.33;;;8.90;94.60;;;;;;5028114;28;20198;-67
2023/02/18 03:26:26;;;;;;;8.07;2.40;;;8.80;94.60;;;;;;5012399;28;20207;-67
2023/02/18 03:28:58;;;;;;;14.23;2.70;;;8.80;94.70;;;;;;5025980;28;20297;-67
2023/02/18 03:31:28;;;;;;;8.90;2.20;;;8.80;94.80;;;;;;5027556;28;20547;-66
2023/02/18 03:34:02;;;;;;;6.33;1.67;;;8.80;94.90;;;;;;5025741;28;20190;-66
2023/02/18 03:36:32;;;;;;;14.27;2.43;;;8.80;94.80;;;;;;5011519;28;20690;-66
2023/02/18 03:39:03;;;;;;;8.50;2.03;;;8.80;95.00;;;;;;5027280;28;20192;-67
2023/02/18 03:41:30;;;;;;;13.10;2.43;;;8.90;94.70;;;;;;5010524;28;20293;-66
2023/02/18 03:44:01;;;;;;;8.27;1.90;;;8.80;94.50;;;;;;5007758;28;20680;-66
2023/02/18 03:46:29;;;;;;;16.27;2.40;;;8.80;94.60;;;;;;5010737;28;20418;-65
2023/02/18 03:48:56;;;;;;;11.00;2.10;;;8.80;94.60;;;;;;5008777;28;20194;-67
2023/02/18 03:51:23;;;;;;;11.07;2.50;;;8.80;94.80;;;;;;5026739;28;20193;-67
2023/02/18 03:53:52;;;;;;;7.67;2.00;;;8.70;94.70;;;;;;5011249;28;20642;-67
2023/02/18 03:56:20;;;;;;;8.73;2.13;;;8.70;94.70;;;;;;5025284;28;20194;-67
2023/02/18 03:58:47;;;;;;;10.90;2.13;;;8.70;94.90;;;;;;5024626;28;20204;-67
2023/02/18 04:01:14;;;;;;;8.93;2.57;;;8.70;94.60;;;;;;5025066;28;20195;-66
2023/02/18 04:03:42;;;;;;;6.03;2.00;;;8.70;94.50;;;;;;5025449;28;20186;-67
2023/02/18 04:06:09;;;;;;;9.03;1.97;;;8.70;94.50;;;;;;5025069;28;20198;-67
2023/02/18 04:08:36;;;;;;;8.50;1.93;;;8.70;94.40;;;;;;5027060;28;20204;-67
2023/02/18 04:11:06;;;;;;;8.40;2.27;;;8.70;94.40;;;;;;5009129;28;20230;-67
2023/02/18 04:13:33;;;;;;;11.93;2.47;;;8.70;94.30;;;;;;5027515;28;20547;-68
2023/02/18 04:16:00;;;;;;;8.07;1.83;;;8.70;94.00;;;;;;5009249;28;20201;-67
2023/02/18 04:18:28;;;;;;;8.20;2.03;;;8.70;94.10;;;;;;5008946;28;20232;-67
2023/02/18 04:20:55;;;;;;;11.80;2.07;;;8.70;94.00;;;;;;5028967;28;20686;-67
2023/02/18 04:23:22;;;;;;;4.13;1.60;;;8.70;94.10;;;;;;5031486;28;20194;-67
2023/02/18 04:25:49;;;;;;;6.83;2.20;;;8.70;94.10;;;;;;5012362;28;20248;-67
2023/02/18 04:28:18;;;;;;;11.13;2.17;;;8.70;94.10;;;;;;5030983;28;20216;-67
2023/02/18 04:30:47;;;;;;;7.07;2.50;;;8.70;94.00;;;;;;5026399;28;20200;-67
2023/02/18 04:33:14;;;;;;;11.97;1.93;;;8.70;94.00;;;;;;5029069;28;20199;-67
2023/02/18 04:35:41;;;;;;;6.30;2.03;;;8.70;94.10;;;;;;5030552;28;20198;-67
2023/02/18 04:38:09;;;;;;;8.83;2.60;;;8.70;94.00;;;;;;5030997;28;20599;-67
2023/02/18 04:40:36;;;;;;;8.43;2.10;;;8.70;94.00;;;;;;5012371;28;20224;-67
2023/02/18 04:43:03;;;;;;;12.23;1.77;;;8.70;94.00;;;;;;5030430;28;20199;-67
2023/02/18 04:45:32;;;;;;;13.13;2.60;;;8.60;94.00;;;;;;5030813;28;20257;-67
2023/02/18 04:47:59;;;;;;;10.00;1.90;;;8.60;94.20;;;;;;5011161;28;20210;-66
2023/02/18 04:50:26;;;;;;;7.00;1.93;;;8.60;94.20;;;;;;5029989;28;20200;-67
2023/02/18 04:52:53;;;;;;;9.83;2.00;;;8.60;94.30;;;;;;5030694;28;20688;-67
2023/02/18 04:55:20;;;;;;;5.60;1.83;;;8.60;94.20;;;;;;5011898;28;20206;-67
2023/02/18 04:57:47;;;;;;;10.80;2.10;;;8.60;94.20;;;;;;5013404;28;20206;-66
2023/02/18 05:00:17;;;;;;;10.80;2.13;;;8.60;94.20;;;;;;5029391;28;20269;-66
2023/02/18 05:02:46;;;;;;;11.83;2.50;;;8.50;94.20;;;;;;5029161;28;20203;-66
2023/02/18 05:05:14;;;;;;;18.20;3.13;;;8.50;94.20;;;;;;5027672;28;20225;-66
2023/02/18 05:07:42;;;;;;;7.57;1.90;;;8.50;94.20;;;;;;5030337;28;20776;-66
2023/02/18 05:10:10;;;;;;;6.77;1.90;;;8.50;94.30;;;;;;5012035;28;20230;-66
2023/02/18 05:12:37;;;;;;;10.77;2.23;;;8.50;94.30;;;;;;5012890;28;20210;-67
2023/02/18 05:15:05;;;;;;;5.37;1.90;;;8.50;94.20;;;;;;5029909;28;20196;-66
2023/02/18 05:17:33;;;;;;;12.03;2.33;;;8.50;94.20;;;;;;5025081;28;20235;-66
2023/02/18 05:20:02;;;;;;;11.80;2.10;;;8.50;94.20;;;;;;5014130;28;20362;-66
2023/02/18 05:22:29;;;;;;;9.67;2.43;;;8.50;94.30;;;;;;5030740;28;20195;-66
2023/02/18 05:24:56;;;;;;;12.20;1.90;;;8.50;94.20;;;;;;5010645;28;20321;-66
2023/02/18 05:27:23;;;;;;;8.87;2.30;;;8.40;94.20;;;;;;5013924;28;20206;-66
2023/02/18 05:29:50;;;;;;;8.50;1.87;;;8.40;94.20;;;;;;5029700;28;20597;-67
2023/02/18 05:32:17;;;;;;;8.40;2.03;;;8.40;94.30;;;;;;5028798;28;20194;-67
2023/02/18 05:34:44;;;;;;;8.03;2.10;;;8.40;94.40;;;;;;5028041;28;20227;-66
2023/02/18 05:37:13;;;;;;;5.83;1.77;;;8.40;94.50;;;;;;5011562;28;20244;-67
2023/02/18 05:39:40;;;;;;;6.80;2.30;;;8.40;94.50;;;;;;5012509;28;20203;-67
2023/02/18 05:42:08;;;;;;;11.33;2.20;;;8.40;94.60;;;;;;5030257;28;20314;-66
2023/02/18 05:44:35;;;;;;;8.97;2.10;;;8.40;94.30;;;;;;5029102;28;20191;-66
2023/02/18 05:47:04;;;;;;;13.00;2.47;;;8.40;94.40;;;;;;5015868;28;20574;-67
2023/02/18 05:49:33;;;;;;;10.43;2.30;;;8.40;94.50;;;;;;5010706;28;20674;-66
2023/02/18 05:52:01;;;;;;;5.53;1.73;;;8.30;94.50;;;;;;5028483;28;20210;-67
2023/02/18 05:54:29;;;;;;;8.77;1.93;;;8.30;94.50;;;;;;5029068;28;20195;-66
2023/02/18 05:56:56;;;;;;;6.53;1.73;;;8.30;94.50;;;;;;5029167;28;20667;-68
2023/02/18 05:59:24;;;;;;;9.57;2.47;;;8.30;94.50;;;;;;5029018;28;20216;-67
2023/02/18 06:01:51;;;;;;;9.00;1.97;;;8.30;94.60;;;;;;5026748;28;20202;-66
2023/02/18 06:04:18;;;;;;;10.77;2.37;;;8.30;94.40;;;;;;5027612;28;20191;-66
2023/02/18 06:06:46;;;;;;;5.57;1.60;;;8.20;94.50;;;;;;5028410;28;20205;-66
2023/02/18 06:09:13;;;;;;;9.67;1.73;;;8.20;94.90;;;;;;5028317;28;20209;-67
2023/02/18 06:11:42;;;;;;;10.57;1.67;;;8.10;94.50;;;;;;5027999;28;20421;-67
2023/02/18 06:14:09;;;;;;;14.97;2.53;;;8.10;94.60;;;;;;5028842;28;20186;-67
2023/02/18 06:16:36;;;;;;;8.20;1.70;;;8.20;94.60;;;;;;5012409;28;20195;-67
2023/02/18 06:19:03;;;;;;;9.63;1.90;;;8.10;94.60;;;;;;5027774;28;20598;-68
2023/02/18 06:21:31;;;;;;;12.73;2.30;;;8.10;94.60;;;;;;5011800;28;20210;-67
2023/02/18 06:23:58;;;;;;;7.30;1.80;;;8.20;94.80;;;;;;5029250;28;20203;-67
2023/02/18 06:26:25;;;;;;;9.53;2.10;;;8.10;94.90;;;;;;5011582;28;20647;-67
2023/02/18 06:28:53;;;;;;;7.40;2.13;;;8.10;94.90;;;;;;5025857;28;20214;-67
2023/02/18 06:31:21;;;;;;;8.60;2.03;;;8.10;95.00;;;;;;5028784;28;20182;-67
2023/02/18 06:33:48;;;;;;;9.00;2.10;;;8.10;95.10;;;;;;5010461;28;20213;-67
2023/02/18 06:36:15;;;;;;;10.33;2.00;;;8.10;95.00;;;;;;5028043;28;20672;-67
2023/02/18 06:38:44;;;;;;;15.27;2.60;;;8.10;95.00;;;;;;5029441;28;20191;-67
2023/02/18 06:41:13;;;;;;;8.73;2.00;;;8.10;95.00;;;;;;5010085;28;20687;-68
2023/02/18 06:43:40;;;;;;;6.50;1.77;;;8.10;95.00;;;;;;5026867;28;20198;-66
2023/02/18 06:46:09;;;;;;;5.60;1.93;;;8.10;95.40;;;;;;5028105;28;20666;-66
2023/02/18 06:48:37;;;;;;;10.00;2.20;;;8.20;95.10;;;;;;5009469;28;20207;-67
2023/02/18 06:51:04;;;;;;;10.10;2.47;;;8.20;95.20;;;;;;5025730;28;20195;-66
2023/02/18 06:53:31;;;;;;;6.40;1.80;;;8.20;95.10;;;;;;5028283;28;20205;-66
2023/02/18 06:55:59;;;;;;;6.00;1.53;;;8.30;95.10;;;;;;5008910;28;20194;-66
2023/02/18 06:58:26;;;;;;;10.57;1.90;;;8.30;95.00;;;;;;5028357;28;20685;-66
2023/02/18 07:00:53;;;;;;;10.97;2.93;;;8.20;94.90;;;;;;5009122;28;20202;-67
2023/02/18 07:03:21;;;;;;;7.63;2.17;;;8.30;94.90;;;;;;5025906;28;20190;-66
2023/02/18 07:05:49;;;;;;;12.13;2.90;;;8.30;95.00;;;;;;5009534;28;20711;-66
2023/02/18 07:08:16;;;;;;;18.97;3.07;;;8.30;95.10;;;;;;5027020;28;20211;-66
2023/02/18 07:10:43;;;;;;;7.33;1.70;;;8.30;95.00;;;;;;5010428;28;20542;-66
2023/02/18 07:13:12;;;;;;;13.57;2.70;;;8.30;95.10;;;;;;5010038;28;20589;-66
2023/02/18 07:15:39;;;;;;;9.70;2.10;;;8.40;95.00;;;;;;5027623;28;20597;-65
2023/02/18 07:18:06;;;;;;;5.77;1.83;;;8.40;94.90;;;;;;5026064;28;20226;-66
2023/02/18 07:20:35;;;;;;;10.90;2.37;;;8.40;94.80;;;;;;5027536;28;20257;-65
2023/02/18 07:23:02;;;;;;;6.47;1.87;;;8.40;94.60;;;;;;5028035;28;20287;-65
2023/02/18 07:25:29;;;;;;;10.40;2.07;;;8.40;94.60;;;;;;5011453;28;20607;-66
2023/02/18 07:27:56;;;;;;;5.83;2.20;;;8.50;94.60;;;;;;5013658;28;20624;-65
2023/02/18 07:30:23;;;;;;;7.57;1.90;;;8.50;94.60;;;;;;5027816;28;20225;-66
2023/02/18 07:32:50;;;;;;;13.77;1.97;;;8.50;94.50;;;;;;5007948;28;20199;-66
2023/02/18 07:35:18;;;;;;;7.73;1.77;;;8.50;94.20;;;;;;5023533;28;20583;-66
2023/02/18 07:37:47;;;;;;;7.10;1.93;;;10.20;94.50;;;;;;5027353;28;20188;-65
2023/02/18 07:40:16;;;;;;;10.70;2.10;;;8.60;94.30;;;;;;5010907;28;20225;-66
2023/02/18 07:42:43;;;;;;;9.40;2.00;;;8.60;94.10;;;;;;5026896;28;20215;-65
2023/02/18 07:45:11;;;;;;;14.13;2.40;;;8.50;94.00;;;;;;5028437;28;20719;-64
2023/02/18 07:47:40;;;;;;;9.53;2.37;;;8.60;94.10;;;;;;5026763;28;20582;-66
2023/02/18 07:50:08;;;;;;;7.13;1.83;;;8.60;94.10;;;;;;5026632;28;20278;-65
2023/02/18 07:52:36;;;;;;;7.87;1.87;;;8.70;94.00;;;;;;5028112;28;20533;-65
2023/02/18 07:55:04;;;;;;;10.50;2.30;;;8.80;94.00;;;;;;5009473;28;20228;-65
2023/02/18 07:57:32;;;;;;;8.70;2.03;;;8.80;93.60;;;;;;5026887;28;20194;-67
2023/02/18 07:59:59;;;;;;;7.57;2.07;;;8.90;93.60;;;;;;5009336;28;20298;-67
2023/02/18 08:02:27;;;;;;;8.00;2.17;;;9.00;93.60;;;;;;5024037;28;20199;-66
2023/02/18 08:04:54;;;;;;;5.90;1.47;;;9.10;93.40;;;;;;5024487;28;20200;-64
2023/02/18 08:07:22;;;;;;;6.50;1.77;;;9.20;93.20;;;;;;5009534;28;20208;-65
2023/02/18 08:09:50;;;;;;;6.23;1.40;;;9.40;93.10;;;;;;5024636;28;20740;-65
2023/02/18 08:12:18;;;;;;;9.90;1.90;;;9.50;93.00;;;;;;5009877;28;20210;-66
2023/02/18 08:14:46;;;;;;;8.53;2.30;;;9.60;92.50;;;;;;5025784;28;20279;-66
2023/02/18 08:17:13;;;;;;;7.97;2.17;;;9.70;92.30;;;;;;5026408;28;20339;-66
2023/02/18 08:19:40;;;;;;;5.97;1.57;;;9.70;92.00;;;;;;5009681;28;20231;-66
2023/02/18 08:22:08;;;;;;;6.90;2.17;;;9.80;92.10;;;;;;5009725;28;20691;-66
2023/02/18 08:24:35;;;;;;;13.23;2.53;;;9.90;91.90;;;;;;5026937;28;20277;-66
2023/02/18 08:27:02;;;;;;;6.83;1.90;;;10.00;91.20;;;;;;5027254;28;20205;-67
2023/02/18 08:29:30;;;;;;;7.17;1.90;;;10.00;91.10;;;;;;5011724;28;20217;-67
2023/02/18 08:31:58;;;;;;;6.33;1.70;;;10.00;90.90;;;;;;5009828;28;20190;-66
2023/02/18 08:34:25;;;;;;;5.87;1.90;;;10.00;90.70;;;;;;5010956;28;20215;-66
2023/02/18 08:36:52;;;;;;;12.20;2.20;;;10.00;90.70;;;;;;5025816;28;20205;-66
2023/02/18 08:39:20;;;;;;;7.50;2.07;;;10.00;90.60;;;;;;5024412;28;20216;-67
2023/02/18 08:41:47;;;;;;;12.57;2.10;;;10.10;90.60;;;;;;5026066;28;20635;-66
2023/02/18 08:44:14;;;;;;;12.17;2.33;;;10.10;90.50;;;;;;5025589;28;20204;-66
2023/02/18 08:46:42;;;;;;;9.27;2.13;;;10.20;90.70;;;;;;5025330;28;20519;-68
2023/02/18 08:49:10;;;;;;;5.47;1.80;;;10.20;90.30;;;;;;5026276;28;20212;-66
2023/02/18 08:51:37;;;;;;;14.67;2.17;;;10.20;90.20;;;;;;5025936;28;20209;-66
2023/02/18 08:54:05;;;;;;;7.87;2.00;;;10.10;90.30;;;;;;5026255;28;20202;-66
2023/02/18 08:56:32;;;;;;;6.10;1.53;;;10.10;90.20;;;;;;5026109;28;20205;-66
2023/02/18 08:58:59;;;;;;;12.23;2.40;;;10.00;90.50;;;;;;5026248;28;20194;-67
2023/02/18 09:01:27;;;;;;;9.87;2.47;;;10.00;90.30;;;;;;5025991;28;20207;-66
2023/02/18 09:03:55;;;;;;;11.43;2.50;;;10.00;90.30;;;;;;5025342;28;20202;-66
2023/02/18 09:06:22;;;;;;;9.37;2.00;;;9.90;90.80;;;;;;5008075;28;20206;-67
2023/02/18 09:08:49;;;;;;;10.97;2.33;;;9.90;90.90;;;;;;5030135;28;20210;-66
2023/02/18 09:11:18;;;;;;;7.30;2.00;;;9.90;90.80;;;;;;5012361;28;20209;-66
2023/02/18 09:13:45;;;;;;;7.30;2.03;;;9.80;90.90;;;;;;5029842;28;20204;-65
2023/02/18 09:16:17;;;;;;;6.47;2.00;;;9.80;91.00;;;;;;5013571;28;20209;-66
2023/02/18 09:18:45;;;;;;;8.40;2.20;;;9.90;91.00;;;;;;5010244;28;20310;-68
2023/02/18 09:21:15;;;;;;;11.10;2.50;;;9.90;90.90;;;;;;5011936;28;20213;-66
2023/02/18 09:23:43;;;;;;;7.23;2.07;;;9.90;90.90;;;;;;5030129;28;20196;-66
2023/02/18 09:26:14;;;;;;;5.80;1.73;;;10.00;90.30;;;;;;5013679;28;20212;-66
2023/02/18 09:28:41;;;;;;;8.90;1.90;;;10.00;90.30;;;;;;5025791;28;20237;-66
2023/02/18 09:31:10;;;;;;;6.37;1.87;;;10.00;90.10;;;;;;5010826;28;20210;-66
2023/02/18 09:33:37;;;;;;;13.00;2.50;;;10.00;90.10;;;;;;5012709;28;20345;-65
2023/02/18 09:36:04;;;;;;;6.50;1.97;;;9.90;90.40;;;;;;5027869;28;20567;-66
2023/02/18 09:38:33;;;;;;;6.03;1.73;;;9.90;90.40;;;;;;5028825;28;20201;-66
2023/02/18 09:41:05;;;;;;;7.97;2.30;;;9.90;90.30;;;;;;5029247;28;20197;-66
2023/02/18 09:43:35;;;;;;;8.03;2.13;;;10.00;90.00;;;;;;5029263;28;20199;-66
2023/02/18 09:46:04;;;;;;;8.73;2.20;;;10.10;89.40;;;;;;5011370;28;20209;-65
2023/02/18 09:48:35;;;;;;;6.30;2.33;;;10.20;89.20;;;;;;5028347;28;20901;-66
2023/02/18 09:51:02;;;;;;;13.00;2.53;;;10.20;88.70;;;;;;5029148;28;20284;-66
2023/02/18 09:53:29;;;;;;;8.63;2.80;;;10.30;88.00;;;;;;5029736;28;20588;-67
2023/02/18 09:55:58;;;;;;;8.93;2.03;;;10.40;88.00;;;;;;5029030;28;20190;-65
2023/02/18 09:58:30;;;;;;;8.80;2.13;;;10.70;86.90;;;;;;5029773;28;20186;-66
2023/02/18 10:01:04;;;;;;;8.53;2.23;;;10.90;85.90;;;;;;5010578;28;20676;-65
2023/02/18 10:03:31;;;;;;;6.60;1.90;;;10.80;85.20;;;;;;5020976;28;20199;-66
2023/02/18 10:06:02;;;;;;;5.93;1.70;;;10.80;85.40;;;;;;5028942;28;20205;-66
2023/02/18 10:08:34;;;;;;;12.63;2.33;;;10.70;86.00;;;;;;5027481;28;20261;-66
2023/02/18 10:11:03;;;;;;;5.80;1.93;;;10.60;85.50;;;;;;5028652;28;20194;-67
2023/02/18 10:13:32;;;;;;;9.90;2.17;;;10.50;85.70;;;;;;5029027;28;20186;-66
2023/02/18 10:16:00;;;;;;;10.97;2.80;;;10.50;86.00;;;;;;5026469;28;20667;-67
2023/02/18 10:18:30;;;;;;;6.60;1.90;;;10.50;85.60;;;;;;5024936;28;20280;-66
2023/02/18 10:21:04;;;;;;;9.10;2.20;;;10.30;84.70;;;;;;5029141;28;20284;-66
2023/02/18 10:23:35;;;;;;;7.53;1.90;;;10.50;84.70;;;;;;5027881;28;20228;-66
2023/02/18 10:26:07;;;;;;;8.13;1.90;;;10.60;83.90;;;;;;5019060;28;20594;-66
2023/02/18 10:28:36;;;;;;;7.70;1.80;;;10.80;84.20;;;;;;5025124;28;20218;-67
2023/02/18 10:31:09;;;;;;;12.97;2.00;;;11.40;83.90;;;;;;5009333;28;20693;-65
2023/02/18 10:33:59;;;;;;;7.70;2.30;;;12.10;82.70;;;;;;5078807;27;20552;-65
2023/02/18 10:36:30;;;;;;;7.97;2.27;;;12.60;81.10;;;;;;5083078;28;20188;-65
2023/02/18 10:39:31;;;;;;;6.70;1.90;;;12.70;80.90;;;;;;5082164;28;20187;-66
2023/02/18 10:42:10;;;;;;;8.33;2.00;;;13.00;80.50;;;;;;5082413;28;20191;-66
2023/02/18 10:44:44;;;;;;;6.43;2.13;;;13.00;78.60;;;;;;5081301;28;20184;-65
2023/02/18 10:47:20;;;;;;;13.17;2.40;;;13.10;78.30;;;;;;5079666;28;20552;-67
2023/02/18 10:49:57;;;;;;;11.17;2.13;;;13.70;77.50;;;;;;5081074;28;20534;-65
2023/02/18 10:52:28;;;;;;;10.40;2.30;;;14.60;75.90;;;;;;5078281;28;20215;-66
2023/02/18 10:55:00;;;;;;;6.20;2.00;;;15.10;72.20;;;;;;5077783;28;20278;-66
2023/02/18 10:57:28;;;;;;;9.37;2.47;;;14.80;70.80;;;;;;5076660;28;20190;-66
2023/02/18 10:59:59;;;;;;;6.63;2.10;;;14.10;69.50;;;;;;5078055;28;20241;-66
2023/02/18 11:02:30;;;;;;;14.50;2.70;;;13.50;70.20;;;;;;5077616;28;20201;-66
2023/02/18 11:05:05;;;;;;;5.37;1.80;;;13.00;71.60;;;;;;5082171;28;20267;-66
2023/02/18 11:07:35;;;;;;;11.97;2.30;;;12.60;73.40;;;;;;5079241;28;20199;-66
2023/02/18 11:10:10;;;;;;;8.07;1.90;;;12.30;74.70;;;;;;5079802;28;20666;-66
2023/02/18 11:12:45;;;;;;;8.33;2.33;;;12.20;75.70;;;;;;5080228;28;20204;-66
2023/02/18 11:15:22;;;;;;;7.77;2.17;;;12.20;75.50;;;;;;5081682;28;20212;-66
2023/02/18 11:17:51;;;;;;;10.93;2.23;;;12.10;75.50;;;;;;5080925;28;20192;-66
2023/02/18 11:20:30;;;;;;;9.83;2.27;;;12.00;75.10;;;;;;5082215;28;20678;-66
2023/02/18 11:23:16;;;;;;;6.90;1.80;;;12.10;75.70;;;;;;5079024;28;20661;-67
2023/02/18 11:26:00;;;;;;;7.37;2.13;;;12.00;74.60;;;;;;5082112;28;20196;-66
2023/02/18 11:28:33;;;;;;;8.30;1.80;;;11.90;74.60;;;;;;5078437;28;20282;-66
2023/02/18 11:31:02;;;;;;;6.83;2.00;;;11.70;74.90;;;;;;5077065;28;20196;-66
2023/02/18 11:33:35;;;;;;;7.97;1.90;;;11.70;75.40;;;;;;5080040;28;20230;-66
2023/02/18 11:36:16;;;;;;;6.40;2.10;;;11.70;75.60;;;;;;5077595;28;20271;-66
2023/02/18 11:38:46;;;;;;;4.83;1.77;;;11.50;76.10;;;;;;5078751;28;20220;-65
2023/02/18 11:41:16;;;;;;;10.77;2.47;;;11.30;76.60;;;;;;5076463;28;20189;-66
2023/02/18 11:43:46;;;;;;;10.80;2.43;;;11.20;77.30;;;;;;5078536;28;20617;-65
2023/02/18 11:46:16;;;;;;;5.80;2.40;;;11.20;78.00;;;;;;5067836;28;20747;-65
2023/02/18 11:48:43;;;;;;;11.37;2.40;;;11.10;78.20;;;;;;5068759;28;20201;-66
2023/02/18 11:51:18;;;;;;;9.63;2.50;;;11.00;78.40;;;;;;5064141;28;20222;-66
2023/02/18 11:54:22;;;;;;;6.33;1.70;;;11.00;78.70;;;;;;5068538;28;20197;-66
2023/02/18 11:56:57;;;;;;;6.60;1.93;;;11.10;77.90;;;;;;5050141;28;20206;-66
2023/02/18 11:59:25;;;;;;;9.03;1.90;;;11.10;77.20;;;;;;5064572;28;20221;-67
2023/02/18 12:01:57;;;;;;;8.17;1.80;;;11.10;77.40;;;;;;5069406;28;20197;-65
2023/02/18 12:04:29;;;;;;;12.13;2.03;;;11.20;78.00;;;;;;5066394;28;20297;-65
2023/02/18 12:07:12;;;;;;;5.90;1.90;;;11.30;78.10;;;;;;5066232;28;20283;-66
2023/02/18 12:09:44;;;;;;;11.87;2.30;;;11.20;78.30;;;;;;5067423;28;20582;-66
2023/02/18 12:12:15;;;;;;;6.47;2.00;;;11.20;79.10;;;;;;5061673;28;20211;-66
2023/02/18 12:14:44;;;;;;;8.50;2.30;;;11.10;79.60;;;;;;5065835;28;20201;-66
2023/02/18 12:17:33;;;;;;;14.43;2.70;;;11.00;79.80;;;;;;5061206;28;20193;-65
2023/02/18 12:20:19;;;;;;;9.97;1.97;;;11.60;80.70;;;;;;5060657;28;20288;-66
2023/02/18 12:22:52;;;;;;;10.97;2.60;;;10.80;80.20;;;;;;5067979;28;20607;-66
2023/02/18 12:25:29;;;;;;;9.03;2.17;;;10.70;80.50;;;;;;5064433;28;20291;-66
2023/02/18 12:28:10;;;;;;;9.57;2.50;;;10.60;80.90;;;;;;5065380;28;20204;-66
2023/02/18 12:31:04;;;;;;;6.83;1.97;;;10.60;81.20;;;;;;5065073;28;20331;-67
2023/02/18 12:33:41;;;;;;;8.53;2.37;;;10.60;81.00;;;;;;5061167;28;20232;-66
2023/02/18 12:36:17;;;;;;;6.97;2.00;;;10.60;81.00;;;;;;5063385;28;20193;-66
2023/02/18 12:39:09;;;;;;;7.70;2.00;;;10.60;80.70;;;;;;5066901;28;20188;-66
2023/02/18 12:41:59;;;;;;;9.63;2.30;;;10.60;80.30;;;;;;5059254;28;20189;-66
2023/02/18 12:44:42;;;;;;;4.50;1.40;;;10.50;80.50;;;;;;5061561;28;20203;-67
2023/02/18 12:48:00;;;;;;;12.80;2.43;;;10.60;80.90;;;;;;5065115;28;20196;-67
2023/02/18 12:51:05;;;;;;;12.30;2.70;;;10.60;80.80;;;;;;4982616;28;20793;-67
2023/02/18 12:53:50;;;;;;;11.10;2.37;;;10.60;79.40;;;;;;5065830;28;20757;-66
2023/02/18 12:56:41;;;;;;;9.47;2.37;;;10.60;79.30;;;;;;5062291;28;20270;-67
2023/02/18 12:59:17;;;;;;;6.17;1.80;;;10.50;79.80;;;;;;5061988;28;20267;-67
2023/02/18 13:01:58;;;;;;;9.33;2.50;;;10.50;80.20;;;;;;5063976;28;20218;-66
2023/02/18 13:04:34;;;;;;;8.13;2.47;;;10.50;80.60;;;;;;5066910;28;20266;-67
2023/02/18 13:07:27;;;;;;;7.47;2.07;;;10.50;81.10;;;;;;5064702;28;20201;-65
2023/02/18 13:10:18;;;;;;;9.03;2.57;;;10.40;81.00;;;;;;5065889;28;20190;-65
2023/02/18 13:12:52;;;;;;;10.47;2.77;;;10.40;81.50;;;;;;5064333;28;20280;-66
2023/02/18 13:15:24;;;;;;;12.10;2.20;;;10.40;81.60;;;;;;5063365;28;20189;-65
2023/02/18 13:17:55;;;;;;;10.60;2.10;;;10.40;81.50;;;;;;5062599;28;20204;-66
2023/02/18 13:20:31;;;;;;;4.97;1.80;;;10.40;81.60;;;;;;5058142;28;20268;-66
2023/02/18 13:22:58;;;;;;;9.93;2.03;;;10.40;81.60;;;;;;5067258;28;20192;-64
2023/02/18 13:25:25;;;;;;;6.07;2.13;;;10.40;81.80;;;;;;5061029;28;20204;-66
2023/02/18 13:28:08;;;;;;;10.77;2.40;;;10.30;81.60;;;;;;5063580;28;20770;-66
2023/02/18 13:30:42;;;;;;;6.67;2.17;;;10.30;81.50;;;;;;5062460;28;20230;-66
2023/02/18 13:33:17;;;;;;;9.03;2.17;;;10.40;81.90;;;;;;5063775;28;20230;-67
2023/02/18 13:35:49;;;;;;;10.27;2.70;;;10.40;82.00;;;;;;5061777;28;20255;-67
2023/02/18 13:38:53;;;;;;;8.33;1.90;;;10.40;82.10;;;;;;5061029;28;20656;-67
2023/02/18 13:41:21;;;;;;;11.23;2.57;;;10.40;82.20;;;;;;5061809;28;20286;-66
2023/02/18 13:43:50;;;;;;;6.27;2.00;;;10.40;82.00;;;;;;5065697;28;20680;-66
2023/02/18 13:46:19;;;;;;;11.40;2.43;;;10.40;82.00;;;;;;5063830;28;20186;-66
2023/02/18 13:48:49;;;;;;;11.20;2.40;;;10.30;82.20;;;;;;5064310;28;20693;-66
2023/02/18 13:51:28;;;;;;;10.30;2.80;;;10.30;82.50;;;;;;5064328;28;20204;-65
2023/02/18 13:54:02;;;;;;;9.90;1.83;;;10.20;82.00;;;;;;5062049;28;20287;-66
2023/02/18 13:56:31;;;;;;;5.77;2.20;;;10.20;82.10;;;;;;5066004;28;20210;-66
2023/02/18 13:59:08;;;;;;;5.47;1.43;;;10.10;82.30;;;;;;5066893;28;20190;-66
2023/02/18 14:01:41;;;;;;;5.73;1.60;;;10.10;82.60;;;;;;5064613;28;20191;-65
2023/02/18 14:04:50;;;;;;;9.47;2.20;;;10.10;82.70;;;;;;5063725;28;20208;-65
2023/02/18 14:07:28;;;;;;;6.80;2.17;;;10.00;83.20;;;;;;5052127;28;20218;-66
2023/02/18 14:09:56;;;;;;;7.93;2.00;;;10.10;83.80;;;;;;5062706;28;20188;-66
2023/02/18 14:12:38;;;;;;;9.10;2.20;;;10.10;84.00;;;;;;5062157;28;20207;-66
2023/02/18 14:15:51;;;;;;;7.50;2.57;;;10.10;84.10;;;;;;5063988;28;20303;-66
2023/02/18 14:18:33;;;;;;;6.63;2.13;;;10.10;83.80;;;;;;5030152;28;20274;-65
2023/02/18 14:21:22;;;;;;;8.97;2.43;;;10.10;84.10;;;;;;5064569;28;20184;-65
2023/02/18 14:23:59;;;;;;;11.40;2.40;;;10.00;84.40;;;;;;5064397;28;20291;-66
2023/02/18 14:26:35;;;;;;;8.10;2.17;;;10.00;84.80;;;;;;5064993;28;20192;-66
2023/02/18 14:29:07;;;;;;;6.33;2.20;;;10.00;85.10;;;;;;5063932;28;20204;-65
2023/02/18 14:31:43;;;;;;;8.87;2.23;;;9.90;86.40;;;;;;5061105;28;20227;-65